sensor_id;sensor_type;location;lat;lon;timestamp;pressure;altitude;pressure_sealevel;temperature;humidity
25080;BME280;13071;48.868;9.996;2023-03-24T00:00:13;95693.16;;;12.18;84.83
25080;BME280;13071;48.868;9.996;2023-03-24T00:02:42;95694.38;;;12.20;84.58
25080;BME280;13071;48.868;9.996;2023-03-24T00:05:12;95701.59;;;12.13;86.18
25080;BME280;13071;48.868;9.996;2023-03-24T00:07:40;95706.59;;;12.10;86.08
25080;BME280;13071;48.868;9.996;2023-03-24T00:10:09;95722.16;;;12.14;85.80
25080;BME280;13071;48.868;9.996;2023-03-24T00:12:36;95715.22;;;12.16;85.70
25080;BME280;13071;48.868;9.996;2023-03-24T00:15:05;95714.31;;;12.08;85.01
25080;BME280;13071;48.868;9.996;2023-03-24T00:17:34;95730.31;;;12.14;84.86
25080;BME280;13071;48.868;9.996;2023-03-24T00:20:02;95739.88;;;12.07;84.67
25080;BME280;13071;48.868;9.996;2023-03-24T00:22:36;95736.25;;;12.00;84.92
25080;BME280;13071;48.868;9.996;2023-03-24T00:25:06;95751.22;;;12.13;84.30
25080;BME280;13071;48.868;9.996;2023-03-24T00:27:33;95752.66;;;12.07;84.74
25080;BME280;13071;48.868;9.996;2023-03-24T00:30:03;95755.31;;;12.03;85.68
25080;BME280;13071;48.868;9.996;2023-03-24T00:32:31;95745.09;;;11.97;86.45
25080;BME280;13071;48.868;9.996;2023-03-24T00:34:59;95743.59;;;11.99;86.85
25080;BME280;13071;48.868;9.996;2023-03-24T00:37:26;95728.59;;;12.05;87.45
25080;BME280;13071;48.868;9.996;2023-03-24T00:39:52;95722.94;;;12.14;87.29
25080;BME280;13071;48.868;9.996;2023-03-24T00:42:19;95718.81;;;12.24;86.53
25080;BME280;13071;48.868;9.996;2023-03-24T00:44:46;95720.66;;;12.16;86.82
25080;BME280;13071;48.868;9.996;2023-03-24T00:47:13;95727.03;;;12.04;88.59
25080;BME280;13071;48.868;9.996;2023-03-24T00:49:42;95718.09;;;12.04;89.47
25080;BME280;13071;48.868;9.996;2023-03-24T00:52:11;95704.00;;;11.95;90.62
25080;BME280;13071;48.868;9.996;2023-03-24T00:54:39;95695.66;;;12.03;90.79
25080;BME280;13071;48.868;9.996;2023-03-24T00:57:07;95689.50;;;11.84;91.49
25080;BME280;13071;48.868;9.996;2023-03-24T00:59:34;95687.97;;;11.86;91.38
25080;BME280;13071;48.868;9.996;2023-03-24T01:02:07;95684.84;;;12.07;89.66
25080;BME280;13071;48.868;9.996;2023-03-24T01:04:36;95677.97;;;12.13;89.40
25080;BME280;13071;48.868;9.996;2023-03-24T01:07:04;95683.28;;;12.06;89.87
25080;BME280;13071;48.868;9.996;2023-03-24T01:09:33;95682.78;;;12.00;90.30
25080;BME280;13071;48.868;9.996;2023-03-24T01:12:01;95670.22;;;11.89;90.05
25080;BME280;13071;48.868;9.996;2023-03-24T01:14:28;95665.09;;;11.84;90.01
25080;BME280;13071;48.868;9.996;2023-03-24T01:16:55;95657.84;;;11.91;90.30
25080;BME280;13071;48.868;9.996;2023-03-24T01:19:21;95655.72;;;12.04;89.19
25080;BME280;13071;48.868;9.996;2023-03-24T01:21:50;95650.66;;;11.80;89.79
25080;BME280;13071;48.868;9.996;2023-03-24T01:24:18;95647.16;;;11.79;89.77
25080;BME280;13071;48.868;9.996;2023-03-24T01:26:47;95647.56;;;11.78;89.97
25080;BME280;13071;48.868;9.996;2023-03-24T01:29:13;95637.78;;;11.73;89.59
25080;BME280;13071;48.868;9.996;2023-03-24T01:31:40;95637.44;;;11.55;90.64
25080;BME280;13071;48.868;9.996;2023-03-24T01:34:07;95634.81;;;11.59;90.73
25080;BME280;13071;48.868;9.996;2023-03-24T01:36:34;95626.47;;;11.48;91.41
25080;BME280;13071;48.868;9.996;2023-03-24T01:39:00;95619.03;;;11.45;92.67
25080;BME280;13071;48.868;9.996;2023-03-24T01:41:31;95616.69;;;11.63;90.37
25080;BME280;13071;48.868;9.996;2023-03-24T01:44:00;95613.03;;;11.55;90.69
25080;BME280;13071;48.868;9.996;2023-03-24T01:46:26;95602.63;;;11.57;90.16
25080;BME280;13071;48.868;9.996;2023-03-24T01:48:56;95600.75;;;11.39;91.00
25080;BME280;13071;48.868;9.996;2023-03-24T01:51:27;95583.31;;;11.59;89.28
25080;BME280;13071;48.868;9.996;2023-03-24T01:54:12;95587.56;;;11.37;90.51
25080;BME280;13071;48.868;9.996;2023-03-24T01:56:43;95584.41;;;11.35;90.23
25080;BME280;13071;48.868;9.996;2023-03-24T01:59:16;95575.88;;;11.33;90.33
25080;BME280;13071;48.868;9.996;2023-03-24T02:01:44;95586.53;;;11.22;90.49
25080;BME280;13071;48.868;9.996;2023-03-24T02:04:11;95577.91;;;11.17;90.23
25080;BME280;13071;48.868;9.996;2023-03-24T02:06:41;95579.03;;;11.16;90.75
25080;BME280;13071;48.868;9.996;2023-03-24T02:09:10;95572.75;;;11.31;89.48
25080;BME280;13071;48.868;9.996;2023-03-24T02:11:38;95562.44;;;11.40;87.96
25080;BME280;13071;48.868;9.996;2023-03-24T02:14:06;95569.63;;;11.52;88.10
25080;BME280;13071;48.868;9.996;2023-03-24T02:16:50;95564.16;;;11.48;88.33
25080;BME280;13071;48.868;9.996;2023-03-24T02:22:53;95551.84;;;11.74;85.88
25080;BME280;13071;48.868;9.996;2023-03-24T02:28:33;95550.84;;;11.85;85.33
25080;BME280;13071;48.868;9.996;2023-03-24T02:31:14;95559.19;;;11.99;84.89
25080;BME280;13071;48.868;9.996;2023-03-24T02:34:14;95558.00;;;11.97;84.32
25080;BME280;13071;48.868;9.996;2023-03-24T02:40:11;95545.13;;;11.90;85.22
25080;BME280;13071;48.868;9.996;2023-03-24T02:42:47;95553.69;;;11.92;84.36
25080;BME280;13071;48.868;9.996;2023-03-24T02:45:23;95550.19;;;11.92;84.02
25080;BME280;13071;48.868;9.996;2023-03-24T02:48:01;95547.53;;;11.95;84.06
25080;BME280;13071;48.868;9.996;2023-03-24T02:50:38;95544.03;;;11.95;83.91
25080;BME280;13071;48.868;9.996;2023-03-24T02:53:10;95546.06;;;12.01;83.89
25080;BME280;13071;48.868;9.996;2023-03-24T02:55:45;95542.94;;;11.99;84.21
25080;BME280;13071;48.868;9.996;2023-03-24T02:58:22;95544.84;;;11.99;84.73
25080;BME280;13071;48.868;9.996;2023-03-24T03:00:54;95545.28;;;12.01;84.46
25080;BME280;13071;48.868;9.996;2023-03-24T03:03:27;95539.50;;;12.02;84.90
25080;BME280;13071;48.868;9.996;2023-03-24T03:05:58;95550.88;;;12.11;84.13
25080;BME280;13071;48.868;9.996;2023-03-24T03:08:29;95548.91;;;12.08;83.85
25080;BME280;13071;48.868;9.996;2023-03-24T03:11:01;95542.38;;;12.13;82.88
25080;BME280;13071;48.868;9.996;2023-03-24T03:13:31;95531.94;;;12.15;83.31
25080;BME280;13071;48.868;9.996;2023-03-24T03:16:07;95529.59;;;12.14;83.96
25080;BME280;13071;48.868;9.996;2023-03-24T03:18:39;95525.69;;;12.11;84.24
25080;BME280;13071;48.868;9.996;2023-03-24T03:21:11;95521.41;;;12.10;84.30
25080;BME280;13071;48.868;9.996;2023-03-24T03:23:41;95516.72;;;12.07;84.21
25080;BME280;13071;48.868;9.996;2023-03-24T03:26:12;95515.63;;;12.11;83.95
25080;BME280;13071;48.868;9.996;2023-03-24T03:28:43;95516.75;;;12.10;83.57
25080;BME280;13071;48.868;9.996;2023-03-24T03:31:20;95518.66;;;12.06;83.58
25080;BME280;13071;48.868;9.996;2023-03-24T03:33:58;95503.50;;;12.05;82.92
25080;BME280;13071;48.868;9.996;2023-03-24T03:36:32;95517.53;;;12.11;82.33
25080;BME280;13071;48.868;9.996;2023-03-24T03:39:07;95512.91;;;12.11;82.23
25080;BME280;13071;48.868;9.996;2023-03-24T03:41:36;95514.09;;;12.14;82.04
25080;BME280;13071;48.868;9.996;2023-03-24T03:44:04;95512.28;;;12.22;81.36
25080;BME280;13071;48.868;9.996;2023-03-24T03:46:31;95505.25;;;12.17;81.56
25080;BME280;13071;48.868;9.996;2023-03-24T03:48:58;95520.25;;;12.11;82.33
25080;BME280;13071;48.868;9.996;2023-03-24T03:51:24;95515.25;;;12.13;82.26
25080;BME280;13071;48.868;9.996;2023-03-24T03:53:53;95511.50;;;12.21;81.54
25080;BME280;13071;48.868;9.996;2023-03-24T03:56:25;95506.84;;;12.22;81.91
25080;BME280;13071;48.868;9.996;2023-03-24T03:58:54;95508.34;;;12.19;82.14
25080;BME280;13071;48.868;9.996;2023-03-24T04:01:23;95513.84;;;12.23;82.08
25080;BME280;13071;48.868;9.996;2023-03-24T04:04:01;95512.78;;;12.31;82.39
25080;BME280;13071;48.868;9.996;2023-03-24T04:06:35;95515.81;;;12.26;82.78
25080;BME280;13071;48.868;9.996;2023-03-24T04:09:14;95511.50;;;12.21;81.83
25080;BME280;13071;48.868;9.996;2023-03-24T04:14:40;95514.47;;;12.13;84.39
25080;BME280;13071;48.868;9.996;2023-03-24T04:17:23;95506.53;;;12.00;85.13
25080;BME280;13071;48.868;9.996;2023-03-24T04:20:02;95505.88;;;12.07;85.06
25080;BME280;13071;48.868;9.996;2023-03-24T04:22:43;95508.97;;;12.09;84.54
25080;BME280;13071;48.868;9.996;2023-03-24T04:25:18;95495.84;;;12.11;83.68
25080;BME280;13071;48.868;9.996;2023-03-24T04:27:55;95507.91;;;12.14;83.01
25080;BME280;13071;48.868;9.996;2023-03-24T04:30:31;95508.63;;;12.10;82.26
25080;BME280;13071;48.868;9.996;2023-03-24T04:33:05;95514.09;;;12.14;82.49
25080;BME280;13071;48.868;9.996;2023-03-24T04:35:35;95515.31;;;12.17;83.01
25080;BME280;13071;48.868;9.996;2023-03-24T04:38:08;95513.25;;;12.10;84.44
25080;BME280;13071;48.868;9.996;2023-03-24T04:40:36;95507.63;;;12.22;83.83
25080;BME280;13071;48.868;9.996;2023-03-24T04:43:08;95510.34;;;12.22;84.12
25080;BME280;13071;48.868;9.996;2023-03-24T04:45:39;95513.66;;;12.08;83.65
25080;BME280;13071;48.868;9.996;2023-03-24T04:48:08;95502.84;;;12.12;84.01
25080;BME280;13071;48.868;9.996;2023-03-24T04:50:37;95510.88;;;12.05;84.73
25080;BME280;13071;48.868;9.996;2023-03-24T04:53:06;95510.00;;;11.97;85.97
25080;BME280;13071;48.868;9.996;2023-03-24T04:55:53;95522.72;;;11.93;86.39
25080;BME280;13071;48.868;9.996;2023-03-24T04:58:22;95501.34;;;11.88;86.86
25080;BME280;13071;48.868;9.996;2023-03-24T05:00:50;95507.94;;;12.17;87.28
25080;BME280;13071;48.868;9.996;2023-03-24T05:03:17;95508.59;;;12.07;87.99
25080;BME280;13071;48.868;9.996;2023-03-24T05:05:46;95504.66;;;12.04;88.81
25080;BME280;13071;48.868;9.996;2023-03-24T05:08:13;95502.72;;;12.05;88.39
25080;BME280;13071;48.868;9.996;2023-03-24T05:10:40;95497.63;;;12.00;88.10
25080;BME280;13071;48.868;9.996;2023-03-24T05:13:07;95494.09;;;11.96;88.97
25080;BME280;13071;48.868;9.996;2023-03-24T05:15:34;95481.97;;;11.90;90.09
25080;BME280;13071;48.868;9.996;2023-03-24T05:18:02;95488.03;;;12.06;90.55
25080;BME280;13071;48.868;9.996;2023-03-24T05:20:29;95485.47;;;11.90;91.16
25080;BME280;13071;48.868;9.996;2023-03-24T05:22:56;95491.22;;;11.85;92.35
25080;BME280;13071;48.868;9.996;2023-03-24T05:25:23;95490.06;;;11.86;92.20
25080;BME280;13071;48.868;9.996;2023-03-24T05:27:49;95492.00;;;11.86;91.64
25080;BME280;13071;48.868;9.996;2023-03-24T05:30:16;95505.47;;;11.79;91.68
25080;BME280;13071;48.868;9.996;2023-03-24T05:32:44;95504.38;;;11.83;91.45
25080;BME280;13071;48.868;9.996;2023-03-24T05:35:12;95502.44;;;11.84;91.07
25080;BME280;13071;48.868;9.996;2023-03-24T05:37:39;95496.28;;;11.87;90.72
25080;BME280;13071;48.868;9.996;2023-03-24T05:40:07;95508.25;;;11.86;90.11
25080;BME280;13071;48.868;9.996;2023-03-24T05:42:33;95509.09;;;11.90;88.99
25080;BME280;13071;48.868;9.996;2023-03-24T05:45:00;95508.94;;;12.05;87.28
25080;BME280;13071;48.868;9.996;2023-03-24T05:47:26;95517.06;;;12.32;82.97
25080;BME280;13071;48.868;9.996;2023-03-24T05:49:53;95522.41;;;12.58;81.45
25080;BME280;13071;48.868;9.996;2023-03-24T05:52:21;95519.06;;;13.02;77.95
25080;BME280;13071;48.868;9.996;2023-03-24T05:54:47;95521.66;;;13.24;76.94
25080;BME280;13071;48.868;9.996;2023-03-24T05:57:17;95528.69;;;13.29;76.52
25080;BME280;13071;48.868;9.996;2023-03-24T05:59:43;95546.09;;;13.65;74.63
25080;BME280;13071;48.868;9.996;2023-03-24T06:02:10;95544.97;;;13.66;74.92
25080;BME280;13071;48.868;9.996;2023-03-24T06:04:37;95557.38;;;13.67;75.76
25080;BME280;13071;48.868;9.996;2023-03-24T06:07:03;95584.91;;;13.62;77.45
25080;BME280;13071;48.868;9.996;2023-03-24T06:09:31;95592.53;;;13.46;79.48
25080;BME280;13071;48.868;9.996;2023-03-24T06:12:00;95590.88;;;13.37;80.59
25080;BME280;13071;48.868;9.996;2023-03-24T06:14:26;95604.69;;;13.22;82.57
25080;BME280;13071;48.868;9.996;2023-03-24T06:16:53;95615.34;;;13.08;83.82
25080;BME280;13071;48.868;9.996;2023-03-24T06:19:24;95625.63;;;12.91;86.02
25080;BME280;13071;48.868;9.996;2023-03-24T06:21:51;95628.22;;;12.81;88.07
25080;BME280;13071;48.868;9.996;2023-03-24T06:24:18;95634.75;;;12.76;89.24
25080;BME280;13071;48.868;9.996;2023-03-24T06:26:47;95635.69;;;12.61;91.28
25080;BME280;13071;48.868;9.996;2023-03-24T06:29:14;95635.97;;;12.52;93.21
25080;BME280;13071;48.868;9.996;2023-03-24T06:31:42;95638.88;;;12.40;94.35
25080;BME280;13071;48.868;9.996;2023-03-24T06:34:09;95645.44;;;12.39;95.33
25080;BME280;13071;48.868;9.996;2023-03-24T06:36:36;95645.75;;;12.34;96.29
25080;BME280;13071;48.868;9.996;2023-03-24T06:39:03;95643.47;;;12.36;97.04
25080;BME280;13071;48.868;9.996;2023-03-24T06:41:30;95645.28;;;12.29;98.14
25080;BME280;13071;48.868;9.996;2023-03-24T06:43:58;95644.81;;;12.23;98.51
25080;BME280;13071;48.868;9.996;2023-03-24T06:46:26;95640.13;;;12.20;99.07
25080;BME280;13071;48.868;9.996;2023-03-24T06:48:52;95640.47;;;12.19;100.00
25080;BME280;13071;48.868;9.996;2023-03-24T06:51:19;95639.72;;;12.18;100.00
25080;BME280;13071;48.868;9.996;2023-03-24T06:53:45;95637.72;;;12.15;100.00
25080;BME280;13071;48.868;9.996;2023-03-24T06:56:12;95643.19;;;12.19;100.00
25080;BME280;13071;48.868;9.996;2023-03-24T06:58:41;95641.38;;;12.26;100.00
25080;BME280;13071;48.868;9.996;2023-03-24T07:01:09;95642.53;;;12.25;100.00
25080;BME280;13071;48.868;9.996;2023-03-24T07:03:36;95643.16;;;12.41;100.00
25080;BME280;13071;48.868;9.996;2023-03-24T07:06:03;95648.16;;;12.39;100.00
25080;BME280;13071;48.868;9.996;2023-03-24T07:08:31;95648.94;;;12.40;100.00
25080;BME280;13071;48.868;9.996;2023-03-24T07:10:58;95656.09;;;12.51;100.00
25080;BME280;13071;48.868;9.996;2023-03-24T07:13:25;95644.13;;;12.52;100.00
25080;BME280;13071;48.868;9.996;2023-03-24T07:15:51;95649.59;;;12.56;100.00
25080;BME280;13071;48.868;9.996;2023-03-24T07:18:19;95651.72;;;12.70;100.00
25080;BME280;13071;48.868;9.996;2023-03-24T07:20:46;95617.66;;;12.46;100.00
25080;BME280;13071;48.868;9.996;2023-03-24T07:23:13;95656.16;;;12.81;100.00
25080;BME280;13071;48.868;9.996;2023-03-24T07:25:40;95648.31;;;12.76;100.00
25080;BME280;13071;48.868;9.996;2023-03-24T07:28:07;95636.31;;;12.77;100.00
25080;BME280;13071;48.868;9.996;2023-03-24T07:30:34;95639.75;;;12.74;100.00
25080;BME280;13071;48.868;9.996;2023-03-24T07:33:01;95636.88;;;12.64;100.00
25080;BME280;13071;48.868;9.996;2023-03-24T07:35:30;95648.28;;;12.73;100.00
25080;BME280;13071;48.868;9.996;2023-03-24T07:37:56;95649.56;;;12.82;100.00
25080;BME280;13071;48.868;9.996;2023-03-24T07:40:23;95654.47;;;12.73;100.00
25080;BME280;13071;48.868;9.996;2023-03-24T07:42:50;95659.47;;;12.68;100.00
25080;BME280;13071;48.868;9.996;2023-03-24T07:45:17;95661.84;;;12.73;100.00
25080;BME280;13071;48.868;9.996;2023-03-24T07:47:44;95665.88;;;12.82;100.00
25080;BME280;13071;48.868;9.996;2023-03-24T07:50:12;95675.78;;;12.71;100.00
25080;BME280;13071;48.868;9.996;2023-03-24T07:52:45;95670.41;;;12.75;100.00
25080;BME280;13071;48.868;9.996;2023-03-24T07:55:12;95677.25;;;12.65;100.00
25080;BME280;13071;48.868;9.996;2023-03-24T07:57:40;95685.81;;;12.67;100.00
25080;BME280;13071;48.868;9.996;2023-03-24T08:00:08;95686.13;;;12.62;100.00
25080;BME280;13071;48.868;9.996;2023-03-24T08:02:39;95693.28;;;12.47;100.00
25080;BME280;13071;48.868;9.996;2023-03-24T08:05:06;95695.97;;;12.47;100.00
25080;BME280;13071;48.868;9.996;2023-03-24T08:07:33;95701.81;;;12.49;100.00
25080;BME280;13071;48.868;9.996;2023-03-24T08:10:01;95702.81;;;12.38;100.00
25080;BME280;13071;48.868;9.996;2023-03-24T08:12:28;95701.63;;;12.39;100.00
25080;BME280;13071;48.868;9.996;2023-03-24T08:14:55;95709.53;;;12.25;100.00
25080;BME280;13071;48.868;9.996;2023-03-24T08:17:21;95711.91;;;12.26;100.00
25080;BME280;13071;48.868;9.996;2023-03-24T08:19:48;95713.59;;;12.11;100.00
25080;BME280;13071;48.868;9.996;2023-03-24T08:22:14;95706.91;;;12.28;100.00
25080;BME280;13071;48.868;9.996;2023-03-24T08:24:41;95712.38;;;12.32;100.00
25080;BME280;13071;48.868;9.996;2023-03-24T08:27:09;95712.66;;;12.23;100.00
25080;BME280;13071;48.868;9.996;2023-03-24T08:29:36;95717.25;;;12.00;100.00
25080;BME280;13071;48.868;9.996;2023-03-24T08:32:03;95720.81;;;12.04;100.00
25080;BME280;13071;48.868;9.996;2023-03-24T08:34:29;95726.22;;;12.04;100.00
25080;BME280;13071;48.868;9.996;2023-03-24T08:36:56;95729.28;;;12.22;100.00
25080;BME280;13071;48.868;9.996;2023-03-24T08:39:22;95720.94;;;12.11;100.00
25080;BME280;13071;48.868;9.996;2023-03-24T08:41:49;95726.47;;;11.95;100.00
25080;BME280;13071;48.868;9.996;2023-03-24T08:44:17;95724.75;;;12.06;100.00
25080;BME280;13071;48.868;9.996;2023-03-24T08:46:44;95726.44;;;12.15;100.00
25080;BME280;13071;48.868;9.996;2023-03-24T08:49:10;95719.25;;;12.26;100.00
25080;BME280;13071;48.868;9.996;2023-03-24T08:51:37;95724.81;;;12.33;100.00
25080;BME280;13071;48.868;9.996;2023-03-24T08:54:03;95718.41;;;12.22;100.00
25080;BME280;13071;48.868;9.996;2023-03-24T08:56:30;95717.69;;;12.25;100.00
25080;BME280;13071;48.868;9.996;2023-03-24T08:58:57;95712.75;;;12.30;100.00
25080;BME280;13071;48.868;9.996;2023-03-24T09:01:25;95708.69;;;12.43;100.00
25080;BME280;13071;48.868;9.996;2023-03-24T09:03:51;95697.22;;;12.53;100.00
25080;BME280;13071;48.868;9.996;2023-03-24T09:06:18;95692.66;;;12.58;100.00
25080;BME280;13071;48.868;9.996;2023-03-24T09:08:45;95671.97;;;12.76;100.00
25080;BME280;13071;48.868;9.996;2023-03-24T09:11:13;95673.78;;;12.68;100.00
25080;BME280;13071;48.868;9.996;2023-03-24T09:13:41;95648.31;;;12.50;100.00
25080;BME280;13071;48.868;9.996;2023-03-24T09:16:08;95629.63;;;12.45;100.00
25080;BME280;13071;48.868;9.996;2023-03-24T09:18:36;95605.28;;;12.22;100.00
25080;BME280;13071;48.868;9.996;2023-03-24T09:21:04;95596.59;;;12.39;100.00
25080;BME280;13071;48.868;9.996;2023-03-24T09:23:31;95623.44;;;12.44;100.00
25080;BME280;13071;48.868;9.996;2023-03-24T09:25:58;95652.53;;;12.74;100.00
25080;BME280;13071;48.868;9.996;2023-03-24T09:28:25;95641.94;;;12.91;100.00
25080;BME280;13071;48.868;9.996;2023-03-24T09:30:56;95660.97;;;12.95;100.00
25080;BME280;13071;48.868;9.996;2023-03-24T09:33:23;95676.31;;;13.10;100.00
25080;BME280;13071;48.868;9.996;2023-03-24T09:35:54;95677.28;;;13.21;100.00
25080;BME280;13071;48.868;9.996;2023-03-24T09:38:20;95686.97;;;13.22;100.00
25080;BME280;13071;48.868;9.996;2023-03-24T09:40:48;95685.09;;;13.26;100.00
25080;BME280;13071;48.868;9.996;2023-03-24T09:43:25;95678.16;;;13.32;100.00
25080;BME280;13071;48.868;9.996;2023-03-24T09:45:55;95683.03;;;13.50;100.00
25080;BME280;13071;48.868;9.996;2023-03-24T09:48:30;95671.88;;;13.58;100.00
25080;BME280;13071;48.868;9.996;2023-03-24T09:51:02;95666.75;;;13.53;100.00
25080;BME280;13071;48.868;9.996;2023-03-24T09:53:34;95674.72;;;13.72;100.00
25080;BME280;13071;48.868;9.996;2023-03-24T09:56:10;95667.25;;;13.62;98.94
25080;BME280;13071;48.868;9.996;2023-03-24T09:58:37;95667.69;;;13.68;99.10
25080;BME280;13071;48.868;9.996;2023-03-24T10:01:10;95665.84;;;13.75;98.29
25080;BME280;13071;48.868;9.996;2023-03-24T10:03:38;95671.97;;;13.65;98.01
25080;BME280;13071;48.868;9.996;2023-03-24T10:06:08;95672.88;;;13.80;98.31
25080;BME280;13071;48.868;9.996;2023-03-24T10:08:39;95673.66;;;13.80;97.48
25080;BME280;13071;48.868;9.996;2023-03-24T10:11:10;95679.84;;;13.77;98.49
25080;BME280;13071;48.868;9.996;2023-03-24T10:13:55;95671.75;;;13.84;95.72
25080;BME280;13071;48.868;9.996;2023-03-24T10:16:29;95666.44;;;13.95;95.78
25080;BME280;13071;48.868;9.996;2023-03-24T10:19:05;95672.03;;;14.16;94.99
25080;BME280;13071;48.868;9.996;2023-03-24T10:21:51;95673.06;;;14.42;93.75
25080;BME280;13071;48.868;9.996;2023-03-24T10:24:26;95682.09;;;14.49;93.40
25080;BME280;13071;48.868;9.996;2023-03-24T10:27:02;95668.44;;;14.46;92.21
25080;BME280;13071;48.868;9.996;2023-03-24T10:29:34;95656.06;;;14.55;93.68
25080;BME280;13071;48.868;9.996;2023-03-24T10:32:04;95669.00;;;14.69;91.87
25080;BME280;13071;48.868;9.996;2023-03-24T10:34:32;95665.16;;;14.81;91.97
25080;BME280;13071;48.868;9.996;2023-03-24T10:37:02;95654.31;;;14.88;90.48
25080;BME280;13071;48.868;9.996;2023-03-24T10:39:30;95657.50;;;15.00;90.50
25080;BME280;13071;48.868;9.996;2023-03-24T10:41:57;95665.31;;;15.05;88.52
25080;BME280;13071;48.868;9.996;2023-03-24T10:44:26;95664.59;;;15.16;87.27
25080;BME280;13071;48.868;9.996;2023-03-24T10:46:54;95655.31;;;15.24;87.15
25080;BME280;13071;48.868;9.996;2023-03-24T10:49:22;95651.84;;;15.34;85.29
25080;BME280;13071;48.868;9.996;2023-03-24T10:51:50;95661.13;;;15.22;84.63
25080;BME280;13071;48.868;9.996;2023-03-24T10:54:23;95667.38;;;15.26;84.08
25080;BME280;13071;48.868;9.996;2023-03-24T10:56:53;95642.78;;;15.08;83.43
25080;BME280;13071;48.868;9.996;2023-03-24T10:59:30;95647.13;;;15.27;85.46
25080;BME280;13071;48.868;9.996;2023-03-24T11:01:59;95651.00;;;15.23;82.65
25080;BME280;13071;48.868;9.996;2023-03-24T11:04:29;95653.38;;;15.31;82.38
25080;BME280;13071;48.868;9.996;2023-03-24T11:07:02;95671.31;;;15.39;83.33
25080;BME280;13071;48.868;9.996;2023-03-24T11:09:37;95664.78;;;15.51;84.42
25080;BME280;13071;48.868;9.996;2023-03-24T11:12:19;95672.63;;;15.67;83.12
25080;BME280;13071;48.868;9.996;2023-03-24T11:14:47;95667.16;;;15.70;82.04
25080;BME280;13071;48.868;9.996;2023-03-24T11:17:14;95661.72;;;15.70;81.44
25080;BME280;13071;48.868;9.996;2023-03-24T11:19:49;95671.03;;;15.62;81.18
25080;BME280;13071;48.868;9.996;2023-03-24T11:22:16;95659.78;;;15.78;80.83
25080;BME280;13071;48.868;9.996;2023-03-24T11:24:46;95667.13;;;15.56;78.20
25080;BME280;13071;48.868;9.996;2023-03-24T11:27:14;95664.69;;;15.37;79.02
25080;BME280;13071;48.868;9.996;2023-03-24T11:29:44;95673.59;;;15.30;79.46
25080;BME280;13071;48.868;9.996;2023-03-24T11:32:20;95661.97;;;15.37;79.08
25080;BME280;13071;48.868;9.996;2023-03-24T11:34:51;95659.66;;;15.42;79.15
25080;BME280;13071;48.868;9.996;2023-03-24T11:37:25;95655.72;;;15.33;78.31
25080;BME280;13071;48.868;9.996;2023-03-24T11:40:20;95649.09;;;15.34;77.82
25080;BME280;13071;48.868;9.996;2023-03-24T11:42:48;95645.97;;;15.32;77.79
25080;BME280;13071;48.868;9.996;2023-03-24T11:45:25;95640.91;;;15.30;78.70
25080;BME280;13071;48.868;9.996;2023-03-24T11:47:55;95658.78;;;15.21;78.45
25080;BME280;13071;48.868;9.996;2023-03-24T11:50:26;95657.06;;;14.95;78.60
25080;BME280;13071;48.868;9.996;2023-03-24T11:52:57;95659.91;;;15.12;79.46
25080;BME280;13071;48.868;9.996;2023-03-24T11:55:33;95655.66;;;15.19;78.63
25080;BME280;13071;48.868;9.996;2023-03-24T11:58:02;95652.53;;;15.17;78.30
25080;BME280;13071;48.868;9.996;2023-03-24T12:00:37;95647.19;;;15.45;77.57
25080;BME280;13071;48.868;9.996;2023-03-24T12:03:38;95647.28;;;15.70;79.36
25080;BME280;13071;48.868;9.996;2023-03-24T12:06:24;95641.09;;;15.87;75.96
25080;BME280;13071;48.868;9.996;2023-03-24T12:09:00;95641.50;;;15.99;76.16
25080;BME280;13071;48.868;9.996;2023-03-24T12:11:43;95647.38;;;16.16;75.38
25080;BME280;13071;48.868;9.996;2023-03-24T12:14:18;95649.72;;;16.17;75.60
25080;BME280;13071;48.868;9.996;2023-03-24T12:16:51;95632.16;;;16.29;75.45
25080;BME280;13071;48.868;9.996;2023-03-24T12:19:39;95635.28;;;16.27;74.56
25080;BME280;13071;48.868;9.996;2023-03-24T12:22:18;95630.19;;;16.01;73.82
25080;BME280;13071;48.868;9.996;2023-03-24T12:25:05;95625.13;;;16.14;74.56
25080;BME280;13071;48.868;9.996;2023-03-24T12:27:42;95620.84;;;16.20;73.31
25080;BME280;13071;48.868;9.996;2023-03-24T12:30:19;95615.38;;;16.23;73.67
25080;BME280;13071;48.868;9.996;2023-03-24T12:33:01;95625.50;;;16.09;74.06
25080;BME280;13071;48.868;9.996;2023-03-24T12:35:46;95615.78;;;15.97;74.81
25080;BME280;13071;48.868;9.996;2023-03-24T12:38:26;95607.97;;;16.10;73.16
25080;BME280;13071;48.868;9.996;2023-03-24T12:41:11;95611.09;;;15.97;72.27
25080;BME280;13071;48.868;9.996;2023-03-24T12:43:48;95617.66;;;15.61;70.67
25080;BME280;13071;48.868;9.996;2023-03-24T12:46:27;95626.22;;;15.52;72.16
25080;BME280;13071;48.868;9.996;2023-03-24T12:49:24;95624.53;;;15.30;72.39
25080;BME280;13071;48.868;9.996;2023-03-24T12:52:08;95616.00;;;15.35;72.36
25080;BME280;13071;48.868;9.996;2023-03-24T12:54:48;95629.63;;;15.35;71.69
25080;BME280;13071;48.868;9.996;2023-03-24T12:57:18;95617.56;;;15.29;70.70
25080;BME280;13071;48.868;9.996;2023-03-24T12:59:53;95620.25;;;15.22;71.61
25080;BME280;13071;48.868;9.996;2023-03-24T13:02:28;95637.84;;;15.46;71.48
25080;BME280;13071;48.868;9.996;2023-03-24T13:04:59;95646.03;;;15.49;70.38
25080;BME280;13071;48.868;9.996;2023-03-24T13:07:29;95635.88;;;15.39;70.08
25080;BME280;13071;48.868;9.996;2023-03-24T13:10:01;95630.41;;;15.36;70.73
25080;BME280;13071;48.868;9.996;2023-03-24T13:12:34;95627.31;;;15.41;70.61
25080;BME280;13071;48.868;9.996;2023-03-24T13:15:13;95635.50;;;15.41;70.01
25080;BME280;13071;48.868;9.996;2023-03-24T13:17:46;95633.16;;;15.43;70.41
25080;BME280;13071;48.868;9.996;2023-03-24T13:20:20;95632.75;;;15.41;70.92
25080;BME280;13071;48.868;9.996;2023-03-24T13:22:48;95628.91;;;15.49;70.37
25080;BME280;13071;48.868;9.996;2023-03-24T13:25:21;95628.47;;;15.29;69.78
25080;BME280;13071;48.868;9.996;2023-03-24T13:27:53;95623.38;;;15.31;71.57